Polaris — JD2797 — position and weather

sailwx.info

Track history (hours):
 
Tides and Currents Weather Stations Pressure Air Temp Water Temp Dewpoint Dewpoint Depression Visibility Wind Speed Wind Dir Waves Ship Positions

Polaris

Last reported at 2017-Apr-24 01:37 UTC. Time now 2017-Apr-24 13:20 UTC.
Position N 35°27' E 139°40'.

Length 30 m; draft 2.6 m.

Type: Pilot. MMSI: 431000764.

Date/timePositionNaut miles runAvg speedWind from/ knotsBaromVisibWave heightAir tempDewpointWater temp
2017-Apr-24 01:37N 35°27' E 139°40'0 0.0
2017-Apr-24 01:30N 35°27' E 139°40'0 0.0
2017-Apr-24 01:00N 35°27' E 139°40'0 0.0
2017-Apr-24 00:30N 35°27' E 139°40'0 0.0
2017-Apr-24 00:00N 35°27' E 139°40'0 0.0
2017-Apr-23 23:30N 35°27' E 139°40'0 0.0
2017-Apr-23 23:00N 35°27' E 139°40'0 0.0
2017-Apr-23 22:30N 35°27' E 139°40'2 4.1
2017-Apr-23 22:00N 35°25' E 139°42'612.7
2017-Apr-23 21:30N 35°19' E 139°42'713.8
2017-Apr-23 21:01N 35°13' E 139°46'510.7
2017-Apr-23 20:30N 35°18' E 139°44'611.7
2017-Apr-23 20:00N 35°23' E 139°41'2 3.4
2017-Apr-23 19:30N 35°25' E 139°42'3 5.6
2017-Apr-23 19:00N 35°27' E 139°40'0 0.0
2017-Apr-23 18:30N 35°27' E 139°40'0 0.0
2017-Apr-23 18:00N 35°27' E 139°40'0 0.0
2017-Apr-23 17:30N 35°27' E 139°40'0 0.0
2017-Apr-23 17:00N 35°27' E 139°40'0 0.0
2017-Apr-23 16:30N 35°27' E 139°40'0 0.0
2017-Apr-23 16:00N 35°27' E 139°40'0 0.0
2017-Apr-23 15:30N 35°27' E 139°40'0 0.0
2017-Apr-23 15:00N 35°27' E 139°40'0 0.0
2017-Apr-23 14:00N 35°27' E 139°40'0 0.0
2017-Apr-23 13:30N 35°27' E 139°40'0 0.0
2017-Apr-23 13:00N 35°27' E 139°40'0 0.0
2017-Apr-23 12:30N 35°27' E 139°40'0 0.0
2017-Apr-23 12:00N 35°27' E 139°40'0 0.0
2017-Apr-23 11:31N 35°27' E 139°40'0 0.0
2017-Apr-23 11:00N 35°27' E 139°40'0 0.0
2017-Apr-23 10:30N 35°27' E 139°40'0 0.0
2017-Apr-23 10:00N 35°27' E 139°40'0 0.0
2017-Apr-23 09:30N 35°27' E 139°40'0 0.0
2017-Apr-23 09:01N 35°27' E 139°40'0 0.0
2017-Apr-23 08:30N 35°27' E 139°40'0 0.0
2017-Apr-23 08:00N 35°27' E 139°40'510.5
2017-Apr-23 07:30N 35°25' E 139°46'510.9
2017-Apr-23 07:00N 35°20' E 139°44'612.0
2017-Apr-23 06:30N 35°14' E 139°47'3 6.5
2017-Apr-23 06:00N 35°11' E 139°47'611.2
2017-Apr-23 05:30N 35°16' E 139°45'713.5
2017-Apr-23 05:00N 35°22' E 139°42'5 9.8
2017-Apr-23 04:30N 35°27' E 139°40'0 0.5
2017-Apr-23 04:00N 35°27' E 139°40'0 0.0
2017-Apr-23 03:30N 35°27' E 139°40'3 5.5
2017-Apr-23 03:00N 35°26' E 139°43'5 9.7
2017-Apr-23 02:30N 35°21' E 139°45'611.6
2017-Apr-23 01:57N 35°15' E 139°47'511.3
2017-Apr-23 01:30N 35°10' E 139°47'1 2.1
2017-Apr-23 01:00N 35°11' E 139°47'612.6
2017-Apr-23 00:31N 35°17' E 139°44'713.6
2017-Apr-23 00:01N 35°23' E 139°42'4 7.6
2017-Apr-22 23:31N 35°27' E 139°40'0 0.0
2017-Apr-22 23:01N 35°27' E 139°40'0 0.0
2017-Apr-22 22:31N 35°27' E 139°40'0 0.0
2017-Apr-22 22:00N 35°27' E 139°40'0 0.0
2017-Apr-22 21:31N 35°27' E 139°40'0 0.0
2017-Apr-22 21:01N 35°27' E 139°40'0 0.0
2017-Apr-22 20:31N 35°27' E 139°40'0 0.0
2017-Apr-22 20:01N 35°27' E 139°40'0 0.0
2017-Apr-22 19:31N 35°27' E 139°40'0 0.0
2017-Apr-22 19:01N 35°27' E 139°40'0 0.0
2017-Apr-22 18:31N 35°27' E 139°40'0 0.0
2017-Apr-22 18:01N 35°27' E 139°40'0 0.0
2017-Apr-22 17:31N 35°27' E 139°40'0 0.0
2017-Apr-22 17:00N 35°27' E 139°40'0 0.0
2017-Apr-22 16:31N 35°27' E 139°40'0 0.0
2017-Apr-22 16:01N 35°27' E 139°40'0 0.0
2017-Apr-22 15:31N 35°27' E 139°40'0 0.0
2017-Apr-22 15:01N 35°27' E 139°40'0 0.0
2017-Apr-22 14:31N 35°27' E 139°40'0 0.0
2017-Apr-22 13:31N 35°27' E 139°40'0 0.0
2017-Apr-22 13:01N 35°27' E 139°40'0 0.0
2017-Apr-22 12:31N 35°27' E 139°40'0 0.0
2017-Apr-22 12:01N 35°27' E 139°40'2 3.3
2017-Apr-22 11:31N 35°26' E 139°42'713.9
2017-Apr-22 11:01N 35°19' E 139°42'714.0
2017-Apr-22 10:31N 35°13' E 139°46'5 9.3
2017-Apr-22 10:00N 35°18' E 139°44'612.4
2017-Apr-22 09:30N 35°23' E 139°42'3 5.2
2017-Apr-22 08:59N 35°25' E 139°45'4 7.3
2017-Apr-22 08:30N 35°27' E 139°42'  
2017-Apr-18 15:18N 35°27' E 139°40'2 6.2
2017-Apr-18 15:00N 35°26' E 139°42'713.6
2017-Apr-18 14:30N 35°19' E 139°42'3 2.8
2017-Apr-18 13:30N 35°17' E 139°45'612.5
2017-Apr-18 13:01N 35°23' E 139°41'1 1.0
2017-Apr-18 12:30N 35°23' E 139°41'0 0.6
2017-Apr-18 12:01N 35°23' E 139°41'4 8.5
2017-Apr-18 11:31N 35°27' E 139°40'1 1.3
2017-Apr-18 11:01N 35°27' E 139°40'0 0.0
2017-Apr-18 10:31N 35°27' E 139°40'0 0.0
2017-Apr-18 10:00N 35°27' E 139°40'0 0.0
2017-Apr-18 09:31N 35°27' E 139°40'0 0.0
2017-Apr-18 09:01N 35°27' E 139°40'0 0.0
2017-Apr-18 08:31N 35°27' E 139°40'0 0.0
2017-Apr-18 08:01N 35°27' E 139°40'0 0.0
2017-Apr-18 07:31N 35°27' E 139°40'0 0.0
2017-Apr-18 07:01N 35°27' E 139°40'0 0.0
2017-Apr-18 06:31N 35°27' E 139°40'0 0.0
2017-Apr-18 06:01N 35°27' E 139°40'2 4.1
2017-Apr-18 05:30N 35°26' E 139°42'612.9
2017-Apr-18 05:00N 35°19' E 139°43'611.7
2017-Apr-18 04:31N 35°14' E 139°47'4 7.2
2017-Apr-18 04:01N 35°11' E 139°47'2 3.9
2017-Apr-18 03:30N 35°12' E 139°48'0 0.7
2017-Apr-18 03:01N 35°13' E 139°48'2 4.9
2017-Apr-18 02:31N 35°14' E 139°45'5 9.0
2017-Apr-18 01:59N 35°18' E 139°43'510.7
2017-Apr-18 01:31N 35°23' E 139°42'4 7.7
2017-Apr-18 01:01N 35°27' E 139°40'0 0.4
2017-Apr-18 00:31N 35°27' E 139°40'0 0.0
2017-Apr-18 00:01N 35°27' E 139°40'0 0.0
2017-Apr-17 23:30N 35°27' E 139°40'0 0.0
2017-Apr-17 23:01N 35°27' E 139°40'0 0.0
2017-Apr-17 22:30N 35°27' E 139°40'0 0.0
2017-Apr-17 22:01N 35°27' E 139°40'0 0.0
2017-Apr-17 21:31N 35°27' E 139°40'0 0.0
2017-Apr-17 21:01N 35°27' E 139°40'0 0.0
2017-Apr-17 20:30N 35°27' E 139°40'0 0.0
2017-Apr-17 20:01N 35°27' E 139°40'0 0.0
2017-Apr-17 19:30N 35°27' E 139°40'0 0.0
2017-Apr-17 19:01N 35°27' E 139°40'0 0.9
2017-Apr-17 18:31N 35°27' E 139°40'612.4
2017-Apr-17 18:00N 35°21' E 139°42'714.4
2017-Apr-17 17:30N 35°14' E 139°46'1 2.9
2017-Apr-17 17:01N 35°16' E 139°46'611.7
2017-Apr-17 16:30N 35°21' E 139°42'510.2
2017-Apr-17 16:00N 35°25' E 139°45'1 1.1
2017-Apr-17 15:30N 35°25' E 139°46'3 5.4
2017-Apr-17 15:00N 35°26' E 139°43'3 2.6
2017-Apr-17 14:00N 35°27' E 139°40'0 0.0
2017-Apr-17 13:30N 35°27' E 139°40'0 0.0
2017-Apr-17 13:01N 35°27' E 139°40'0 0.0
2017-Apr-17 12:30N 35°27' E 139°40'0 0.0
2017-Apr-17 12:00N 35°27' E 139°40'0 0.0
2017-Apr-17 11:30N 35°27' E 139°40'0 0.0
2017-Apr-17 11:00N 35°27' E 139°40'0 0.0
2017-Apr-17 10:30N 35°27' E 139°40'0 0.0
2017-Apr-17 10:00N 35°27' E 139°40'0 0.0
2017-Apr-17 09:30N 35°27' E 139°40'0 0.1
2017-Apr-17 09:00N 35°27' E 139°40'4 9.0
2017-Apr-17 08:30N 35°23' E 139°42'611.8
2017-Apr-17 08:00N 35°17' E 139°45'611.3
2017-Apr-17 07:30N 35°12' E 139°47'2 3.5
2017-Apr-17 07:00N 35°10' E 139°47'612.5
2017-Apr-17 06:31N 35°16' E 139°45'713.5
2017-Apr-17 06:01N 35°22' E 139°42'5 9.5
2017-Apr-17 05:31N 35°27' E 139°40'0 0.2
2017-Apr-17 05:01N 35°27' E 139°40'0 0.0
2017-Apr-17 04:31N 35°27' E 139°40'0 0.0
2017-Apr-17 04:01N 35°27' E 139°40'0 0.0
2017-Apr-17 03:30N 35°27' E 139°40'0 0.0
2017-Apr-17 03:01N 35°27' E 139°40'0 0.0
2017-Apr-17 02:30N 35°27' E 139°40'0 0.5
2017-Apr-17 02:01N 35°27' E 139°40'611.7
2017-Apr-17 01:31N 35°25' E 139°47'612.6
2017-Apr-17 01:00N 35°19' E 139°44'612.3
2017-Apr-17 00:30N 35°13' E 139°47'2 4.5
2017-Apr-17 00:00N 35°11' E 139°47'611.6
2017-Apr-16 23:30N 35°16' E 139°45'713.8
2017-Apr-16 23:01N 35°23' E 139°42'5 9.0
2017-Apr-16 22:31N 35°27' E 139°40'0 0.2
2017-Apr-16 22:00N 35°27' E 139°40'  
2017-Apr-14 06:49N 35°27' E 139°40'0 0.0
2017-Apr-14 06:30N 35°27' E 139°40'0 0.0
2017-Apr-14 06:00N 35°27' E 139°40'0 0.3
2017-Apr-14 05:30N 35°27' E 139°40'611.8
2017-Apr-14 05:00N 35°25' E 139°47'611.5
2017-Apr-14 04:30N 35°20' E 139°44'510.3
2017-Apr-14 04:00N 35°16' E 139°47'4 8.5
2017-Apr-14 03:29N 35°11' E 139°47'1 1.7
2017-Apr-14 03:00N 35°10' E 139°47'612.9
2017-Apr-14 02:30N 35°16' E 139°44'510.3
2017-Apr-14 02:00N 35°19' E 139°39'  
Track history (hours):
 
Tides and Currents Weather Stations Pressure Air Temp Water Temp Dewpoint Dewpoint Depression Visibility Wind Speed Wind Dir Waves Ship Positions

Polaris

Last reported at 2017-Apr-24 01:37 UTC. Time now 2017-Apr-24 13:20 UTC.
Position N 35°27' E 139°40'.

Length 30 m; draft 2.6 m.

Type: Pilot. MMSI: 431000764.

Date/timePositionNaut miles runAvg speedWind from/ knotsBaromVisibWave heightAir tempDewpointWater temp
2017-Apr-24 01:37N 35°27' E 139°40'0 0.0
2017-Apr-24 01:30N 35°27' E 139°40'0 0.0
2017-Apr-24 01:00N 35°27' E 139°40'0 0.0
2017-Apr-24 00:30N 35°27' E 139°40'0 0.0
2017-Apr-24 00:00N 35°27' E 139°40'0 0.0
2017-Apr-23 23:30N 35°27' E 139°40'0 0.0
2017-Apr-23 23:00N 35°27' E 139°40'0 0.0
2017-Apr-23 22:30N 35°27' E 139°40'2 4.1
2017-Apr-23 22:00N 35°25' E 139°42'612.7
2017-Apr-23 21:30N 35°19' E 139°42'713.8
2017-Apr-23 21:01N 35°13' E 139°46'510.7
2017-Apr-23 20:30N 35°18' E 139°44'611.7
2017-Apr-23 20:00N 35°23' E 139°41'2 3.4
2017-Apr-23 19:30N 35°25' E 139°42'3 5.6
2017-Apr-23 19:00N 35°27' E 139°40'0 0.0
2017-Apr-23 18:30N 35°27' E 139°40'0 0.0
2017-Apr-23 18:00N 35°27' E 139°40'0 0.0
2017-Apr-23 17:30N 35°27' E 139°40'0 0.0
2017-Apr-23 17:00N 35°27' E 139°40'0 0.0
2017-Apr-23 16:30N 35°27' E 139°40'0 0.0
2017-Apr-23 16:00N 35°27' E 139°40'0 0.0
2017-Apr-23 15:30N 35°27' E 139°40'0 0.0
2017-Apr-23 15:00N 35°27' E 139°40'0 0.0
2017-Apr-23 14:00N 35°27' E 139°40'0 0.0
2017-Apr-23 13:30N 35°27' E 139°40'0 0.0
2017-Apr-23 13:00N 35°27' E 139°40'0 0.0
2017-Apr-23 12:30N 35°27' E 139°40'0 0.0
2017-Apr-23 12:00N 35°27' E 139°40'0 0.0
2017-Apr-23 11:31N 35°27' E 139°40'0 0.0
2017-Apr-23 11:00N 35°27' E 139°40'0 0.0
2017-Apr-23 10:30N 35°27' E 139°40'0 0.0
2017-Apr-23 10:00N 35°27' E 139°40'0 0.0
2017-Apr-23 09:30N 35°27' E 139°40'0 0.0
2017-Apr-23 09:01N 35°27' E 139°40'0 0.0
2017-Apr-23 08:30N 35°27' E 139°40'0 0.0
2017-Apr-23 08:00N 35°27' E 139°40'510.5
2017-Apr-23 07:30N 35°25' E 139°46'510.9
2017-Apr-23 07:00N 35°20' E 139°44'612.0
2017-Apr-23 06:30N 35°14' E 139°47'3 6.5
2017-Apr-23 06:00N 35°11' E 139°47'611.2
2017-Apr-23 05:30N 35°16' E 139°45'713.5
2017-Apr-23 05:00N 35°22' E 139°42'5 9.8
2017-Apr-23 04:30N 35°27' E 139°40'0 0.5
2017-Apr-23 04:00N 35°27' E 139°40'0 0.0
2017-Apr-23 03:30N 35°27' E 139°40'3 5.5
2017-Apr-23 03:00N 35°26' E 139°43'5 9.7
2017-Apr-23 02:30N 35°21' E 139°45'611.6
2017-Apr-23 01:57N 35°15' E 139°47'511.3
2017-Apr-23 01:30N 35°10' E 139°47'1 2.1
2017-Apr-23 01:00N 35°11' E 139°47'612.6
2017-Apr-23 00:31N 35°17' E 139°44'713.6
2017-Apr-23 00:01N 35°23' E 139°42'4 7.6
2017-Apr-22 23:31N 35°27' E 139°40'0 0.0
2017-Apr-22 23:01N 35°27' E 139°40'0 0.0
2017-Apr-22 22:31N 35°27' E 139°40'0 0.0
2017-Apr-22 22:00N 35°27' E 139°40'0 0.0
2017-Apr-22 21:31N 35°27' E 139°40'0 0.0
2017-Apr-22 21:01N 35°27' E 139°40'0 0.0
2017-Apr-22 20:31N 35°27' E 139°40'0 0.0
2017-Apr-22 20:01N 35°27' E 139°40'0 0.0
2017-Apr-22 19:31N 35°27' E 139°40'0 0.0
2017-Apr-22 19:01N 35°27' E 139°40'0 0.0
2017-Apr-22 18:31N 35°27' E 139°40'0 0.0
2017-Apr-22 18:01N 35°27' E 139°40'0 0.0
2017-Apr-22 17:31N 35°27' E 139°40'0 0.0
2017-Apr-22 17:00N 35°27' E 139°40'0 0.0
2017-Apr-22 16:31N 35°27' E 139°40'0 0.0
2017-Apr-22 16:01N 35°27' E 139°40'0 0.0
2017-Apr-22 15:31N 35°27' E 139°40'0 0.0
2017-Apr-22 15:01N 35°27' E 139°40'0 0.0
2017-Apr-22 14:31N 35°27' E 139°40'0 0.0
2017-Apr-22 13:31N 35°27' E 139°40'0 0.0
2017-Apr-22 13:01N 35°27' E 139°40'0 0.0
2017-Apr-22 12:31N 35°27' E 139°40'0 0.0
2017-Apr-22 12:01N 35°27' E 139°40'2 3.3
2017-Apr-22 11:31N 35°26' E 139°42'713.9
2017-Apr-22 11:01N 35°19' E 139°42'714.0
2017-Apr-22 10:31N 35°13' E 139°46'5 9.3
2017-Apr-22 10:00N 35°18' E 139°44'612.4
2017-Apr-22 09:30N 35°23' E 139°42'3 5.2
2017-Apr-22 08:59N 35°25' E 139°45'4 7.3
2017-Apr-22 08:30N 35°27' E 139°42'  
2017-Apr-18 15:18N 35°27' E 139°40'2 6.2
2017-Apr-18 15:00N 35°26' E 139°42'713.6
2017-Apr-18 14:30N 35°19' E 139°42'3 2.8
2017-Apr-18 13:30N 35°17' E 139°45'612.5
2017-Apr-18 13:01N 35°23' E 139°41'1 1.0
2017-Apr-18 12:30N 35°23' E 139°41'0 0.6
2017-Apr-18 12:01N 35°23' E 139°41'4 8.5
2017-Apr-18 11:31N 35°27' E 139°40'1 1.3
2017-Apr-18 11:01N 35°27' E 139°40'0 0.0
2017-Apr-18 10:31N 35°27' E 139°40'0 0.0
2017-Apr-18 10:00N 35°27' E 139°40'0 0.0
2017-Apr-18 09:31N 35°27' E 139°40'0 0.0
2017-Apr-18 09:01N 35°27' E 139°40'0 0.0
2017-Apr-18 08:31N 35°27' E 139°40'0 0.0
2017-Apr-18 08:01N 35°27' E 139°40'0 0.0
2017-Apr-18 07:31N 35°27' E 139°40'0 0.0
2017-Apr-18 07:01N 35°27' E 139°40'0 0.0
2017-Apr-18 06:31N 35°27' E 139°40'0 0.0
2017-Apr-18 06:01N 35°27' E 139°40'2 4.1
2017-Apr-18 05:30N 35°26' E 139°42'612.9
2017-Apr-18 05:00N 35°19' E 139°43'611.7
2017-Apr-18 04:31N 35°14' E 139°47'4 7.2
2017-Apr-18 04:01N 35°11' E 139°47'2 3.9
2017-Apr-18 03:30N 35°12' E 139°48'0 0.7
2017-Apr-18 03:01N 35°13' E 139°48'2 4.9
2017-Apr-18 02:31N 35°14' E 139°45'5 9.0
2017-Apr-18 01:59N 35°18' E 139°43'510.7
2017-Apr-18 01:31N 35°23' E 139°42'4 7.7
2017-Apr-18 01:01N 35°27' E 139°40'0 0.4
2017-Apr-18 00:31N 35°27' E 139°40'0 0.0
2017-Apr-18 00:01N 35°27' E 139°40'0 0.0
2017-Apr-17 23:30N 35°27' E 139°40'0 0.0
2017-Apr-17 23:01N 35°27' E 139°40'0 0.0
2017-Apr-17 22:30N 35°27' E 139°40'0 0.0
2017-Apr-17 22:01N 35°27' E 139°40'0 0.0
2017-Apr-17 21:31N 35°27' E 139°40'0 0.0
2017-Apr-17 21:01N 35°27' E 139°40'0 0.0
2017-Apr-17 20:30N 35°27' E 139°40'0 0.0
2017-Apr-17 20:01N 35°27' E 139°40'0 0.0
2017-Apr-17 19:30N 35°27' E 139°40'0 0.0
2017-Apr-17 19:01N 35°27' E 139°40'0 0.9
2017-Apr-17 18:31N 35°27' E 139°40'612.4
2017-Apr-17 18:00N 35°21' E 139°42'714.4
2017-Apr-17 17:30N 35°14' E 139°46'1 2.9
2017-Apr-17 17:01N 35°16' E 139°46'611.7
2017-Apr-17 16:30N 35°21' E 139°42'510.2
2017-Apr-17 16:00N 35°25' E 139°45'1 1.1
2017-Apr-17 15:30N 35°25' E 139°46'3 5.4
2017-Apr-17 15:00N 35°26' E 139°43'3 2.6
2017-Apr-17 14:00N 35°27' E 139°40'0 0.0
2017-Apr-17 13:30N 35°27' E 139°40'0 0.0
2017-Apr-17 13:01N 35°27' E 139°40'0 0.0
2017-Apr-17 12:30N 35°27' E 139°40'0 0.0
2017-Apr-17 12:00N 35°27' E 139°40'0 0.0
2017-Apr-17 11:30N 35°27' E 139°40'0 0.0
2017-Apr-17 11:00N 35°27' E 139°40'0 0.0
2017-Apr-17 10:30N 35°27' E 139°40'0 0.0
2017-Apr-17 10:00N 35°27' E 139°40'0 0.0
2017-Apr-17 09:30N 35°27' E 139°40'0 0.1
2017-Apr-17 09:00N 35°27' E 139°40'4 9.0
2017-Apr-17 08:30N 35°23' E 139°42'611.8
2017-Apr-17 08:00N 35°17' E 139°45'611.3
2017-Apr-17 07:30N 35°12' E 139°47'2 3.5
2017-Apr-17 07:00N 35°10' E 139°47'612.5
2017-Apr-17 06:31N 35°16' E 139°45'713.5
2017-Apr-17 06:01N 35°22' E 139°42'5 9.5
2017-Apr-17 05:31N 35°27' E 139°40'0 0.2
2017-Apr-17 05:01N 35°27' E 139°40'0 0.0
2017-Apr-17 04:31N 35°27' E 139°40'0 0.0
2017-Apr-17 04:01N 35°27' E 139°40'0 0.0
2017-Apr-17 03:30N 35°27' E 139°40'0 0.0
2017-Apr-17 03:01N 35°27' E 139°40'0 0.0
2017-Apr-17 02:30N 35°27' E 139°40'0 0.5
2017-Apr-17 02:01N 35°27' E 139°40'611.7
2017-Apr-17 01:31N 35°25' E 139°47'612.6
2017-Apr-17 01:00N 35°19' E 139°44'612.3
2017-Apr-17 00:30N 35°13' E 139°47'2 4.5
2017-Apr-17 00:00N 35°11' E 139°47'611.6
2017-Apr-16 23:30N 35°16' E 139°45'713.8
2017-Apr-16 23:01N 35°23' E 139°42'5 9.0
2017-Apr-16 22:31N 35°27' E 139°40'0 0.2
2017-Apr-16 22:00N 35°27' E 139°40'  
2017-Apr-14 06:49N 35°27' E 139°40'0 0.0
2017-Apr-14 06:30N 35°27' E 139°40'0 0.0
2017-Apr-14 06:00N 35°27' E 139°40'0 0.3
2017-Apr-14 05:30N 35°27' E 139°40'611.8
2017-Apr-14 05:00N 35°25' E 139°47'611.5
2017-Apr-14 04:30N 35°20' E 139°44'510.3
2017-Apr-14 04:00N 35°16' E 139°47'4 8.5
2017-Apr-14 03:29N 35°11' E 139°47'1 1.7
2017-Apr-14 03:00N 35°10' E 139°47'612.9
2017-Apr-14 02:30N 35°16' E 139°44'510.3
2017-Apr-14 02:00N 35°19' E 139°39'  

Dump ship's entire track history